sensor_id;sensor_type;location;lat;lon;timestamp;temperature;humidity
12819;DHT22;6474;53.474;9.894;2023-11-19T00:00:11;5.50;92.80
12819;DHT22;6474;53.474;9.894;2023-11-19T00:02:41;5.50;92.80
12819;DHT22;6474;53.474;9.894;2023-11-19T00:05:10;5.50;92.80
12819;DHT22;6474;53.474;9.894;2023-11-19T00:07:39;5.50;92.80
12819;DHT22;6474;53.474;9.894;2023-11-19T00:10:09;5.50;92.80
12819;DHT22;6474;53.474;9.894;2023-11-19T00:12:39;5.50;92.90
12819;DHT22;6474;53.474;9.894;2023-11-19T00:15:08;5.50;92.80
12819;DHT22;6474;53.474;9.894;2023-11-19T00:17:38;5.50;92.80
12819;DHT22;6474;53.474;9.894;2023-11-19T00:20:09;5.50;92.80
12819;DHT22;6474;53.474;9.894;2023-11-19T00:22:37;5.50;92.80
12819;DHT22;6474;53.474;9.894;2023-11-19T00:25:15;5.50;92.80
12819;DHT22;6474;53.474;9.894;2023-11-19T00:27:43;5.50;92.80
12819;DHT22;6474;53.474;9.894;2023-11-19T00:30:12;5.50;92.80
12819;DHT22;6474;53.474;9.894;2023-11-19T00:32:41;5.50;92.80
12819;DHT22;6474;53.474;9.894;2023-11-19T00:35:11;5.50;92.80
12819;DHT22;6474;53.474;9.894;2023-11-19T00:37:40;5.60;92.90
12819;DHT22;6474;53.474;9.894;2023-11-19T00:40:10;5.60;92.90
12819;DHT22;6474;53.474;9.894;2023-11-19T00:42:38;5.60;92.90
12819;DHT22;6474;53.474;9.894;2023-11-19T00:45:06;5.60;92.90
12819;DHT22;6474;53.474;9.894;2023-11-19T00:47:37;5.60;92.90
12819;DHT22;6474;53.474;9.894;2023-11-19T00:50:06;5.60;92.90
12819;DHT22;6474;53.474;9.894;2023-11-19T00:52:37;5.60;92.90
12819;DHT22;6474;53.474;9.894;2023-11-19T00:55:05;5.60;92.90
12819;DHT22;6474;53.474;9.894;2023-11-19T00:57:34;5.60;92.90
12819;DHT22;6474;53.474;9.894;2023-11-19T01:00:03;5.60;92.90
12819;DHT22;6474;53.474;9.894;2023-11-19T01:02:35;5.70;92.90
12819;DHT22;6474;53.474;9.894;2023-11-19T01:05:04;5.60;92.90
12819;DHT22;6474;53.474;9.894;2023-11-19T01:07:32;5.70;92.90
12819;DHT22;6474;53.474;9.894;2023-11-19T01:10:01;5.60;93.20
12819;DHT22;6474;53.474;9.894;2023-11-19T01:12:29;5.70;92.90
12819;DHT22;6474;53.474;9.894;2023-11-19T01:14:59;5.70;92.90
12819;DHT22;6474;53.474;9.894;2023-11-19T01:17:27;5.70;92.90
12819;DHT22;6474;53.474;9.894;2023-11-19T01:19:58;5.70;92.90
12819;DHT22;6474;53.474;9.894;2023-11-19T01:22:26;5.70;92.90
12819;DHT22;6474;53.474;9.894;2023-11-19T01:24:54;5.70;92.90
12819;DHT22;6474;53.474;9.894;2023-11-19T01:27:23;5.70;92.90
12819;DHT22;6474;53.474;9.894;2023-11-19T01:29:51;5.70;92.90
12819;DHT22;6474;53.474;9.894;2023-11-19T01:32:19;5.70;92.90
12819;DHT22;6474;53.474;9.894;2023-11-19T01:34:47;5.70;92.90
12819;DHT22;6474;53.474;9.894;2023-11-19T01:37:15;5.70;92.90
12819;DHT22;6474;53.474;9.894;2023-11-19T01:39:43;5.70;92.90
12819;DHT22;6474;53.474;9.894;2023-11-19T01:42:11;5.70;92.90
12819;DHT22;6474;53.474;9.894;2023-11-19T01:44:41;5.80;93.00
12819;DHT22;6474;53.474;9.894;2023-11-19T01:47:09;5.80;93.00
12819;DHT22;6474;53.474;9.894;2023-11-19T01:49:37;5.80;93.00
12819;DHT22;6474;53.474;9.894;2023-11-19T01:52:05;5.80;93.00
12819;DHT22;6474;53.474;9.894;2023-11-19T01:54:35;5.80;93.00
12819;DHT22;6474;53.474;9.894;2023-11-19T01:57:03;5.80;93.00
12819;DHT22;6474;53.474;9.894;2023-11-19T01:59:31;5.80;93.00
12819;DHT22;6474;53.474;9.894;2023-11-19T02:02:01;5.80;93.00
12819;DHT22;6474;53.474;9.894;2023-11-19T02:04:29;5.80;93.00
12819;DHT22;6474;53.474;9.894;2023-11-19T02:06:58;5.90;93.00
12819;DHT22;6474;53.474;9.894;2023-11-19T02:09:26;5.90;93.00
12819;DHT22;6474;53.474;9.894;2023-11-19T02:11:55;5.90;93.00
12819;DHT22;6474;53.474;9.894;2023-11-19T02:14:25;5.90;93.00
12819;DHT22;6474;53.474;9.894;2023-11-19T02:16:53;5.90;93.00
12819;DHT22;6474;53.474;9.894;2023-11-19T02:19:22;5.90;93.30
12819;DHT22;6474;53.474;9.894;2023-11-19T02:21:50;5.90;93.00
12819;DHT22;6474;53.474;9.894;2023-11-19T02:24:20;5.90;93.00
12819;DHT22;6474;53.474;9.894;2023-11-19T02:26:57;5.90;93.00
12819;DHT22;6474;53.474;9.894;2023-11-19T02:29:28;5.90;93.00
12819;DHT22;6474;53.474;9.894;2023-11-19T02:31:56;6.00;93.00
12819;DHT22;6474;53.474;9.894;2023-11-19T02:34:24;6.00;93.00
12819;DHT22;6474;53.474;9.894;2023-11-19T02:36:52;6.00;93.00
12819;DHT22;6474;53.474;9.894;2023-11-19T02:39:20;6.00;93.00
12819;DHT22;6474;53.474;9.894;2023-11-19T02:41:48;6.00;93.00
12819;DHT22;6474;53.474;9.894;2023-11-19T02:44:19;6.00;93.00
12819;DHT22;6474;53.474;9.894;2023-11-19T02:46:48;6.00;93.00
12819;DHT22;6474;53.474;9.894;2023-11-19T02:49:16;6.00;93.00
12819;DHT22;6474;53.474;9.894;2023-11-19T02:51:44;6.10;93.00
12819;DHT22;6474;53.474;9.894;2023-11-19T02:54:12;6.10;93.00
12819;DHT22;6474;53.474;9.894;2023-11-19T02:56:42;6.10;93.00
12819;DHT22;6474;53.474;9.894;2023-11-19T02:59:10;6.10;93.00
12819;DHT22;6474;53.474;9.894;2023-11-19T03:01:54;6.10;93.00
12819;DHT22;6474;53.474;9.894;2023-11-19T03:04:22;6.20;93.10
12819;DHT22;6474;53.474;9.894;2023-11-19T03:06:50;6.20;93.00
12819;DHT22;6474;53.474;9.894;2023-11-19T03:09:20;6.20;93.00
12819;DHT22;6474;53.474;9.894;2023-11-19T03:11:47;6.30;93.00
12819;DHT22;6474;53.474;9.894;2023-11-19T03:14:16;6.30;93.00
12819;DHT22;6474;53.474;9.894;2023-11-19T03:16:45;6.30;93.00
12819;DHT22;6474;53.474;9.894;2023-11-19T03:19:15;6.30;93.00
12819;DHT22;6474;53.474;9.894;2023-11-19T03:21:51;6.40;93.10
12819;DHT22;6474;53.474;9.894;2023-11-19T03:24:20;6.30;93.00
12819;DHT22;6474;53.474;9.894;2023-11-19T03:26:48;6.40;93.00
12819;DHT22;6474;53.474;9.894;2023-11-19T03:29:17;6.40;93.00
12819;DHT22;6474;53.474;9.894;2023-11-19T03:31:45;6.40;93.00
12819;DHT22;6474;53.474;9.894;2023-11-19T03:34:14;6.40;93.00
12819;DHT22;6474;53.474;9.894;2023-11-19T03:36:43;6.50;93.10
12819;DHT22;6474;53.474;9.894;2023-11-19T03:39:11;6.50;93.10
12819;DHT22;6474;53.474;9.894;2023-11-19T03:41:38;6.50;93.10
12819;DHT22;6474;53.474;9.894;2023-11-19T03:44:08;6.50;93.10
12819;DHT22;6474;53.474;9.894;2023-11-19T03:46:36;6.60;93.20
12819;DHT22;6474;53.474;9.894;2023-11-19T03:49:04;6.60;93.10
12819;DHT22;6474;53.474;9.894;2023-11-19T03:51:35;6.60;93.20
12819;DHT22;6474;53.474;9.894;2023-11-19T03:54:03;6.60;93.20
12819;DHT22;6474;53.474;9.894;2023-11-19T03:56:31;6.70;93.20
12819;DHT22;6474;53.474;9.894;2023-11-19T03:58:59;6.70;93.20
12819;DHT22;6474;53.474;9.894;2023-11-19T04:01:27;6.70;93.20
12819;DHT22;6474;53.474;9.894;2023-11-19T04:03:55;6.80;93.30
12819;DHT22;6474;53.474;9.894;2023-11-19T04:06:23;6.80;93.30
12819;DHT22;6474;53.474;9.894;2023-11-19T04:08:52;6.90;93.30
12819;DHT22;6474;53.474;9.894;2023-11-19T04:11:20;6.90;93.20
12819;DHT22;6474;53.474;9.894;2023-11-19T04:13:48;7.10;93.30
12819;DHT22;6474;53.474;9.894;2023-11-19T04:16:16;7.10;93.20
12819;DHT22;6474;53.474;9.894;2023-11-19T04:18:44;7.10;93.20
12819;DHT22;6474;53.474;9.894;2023-11-19T04:21:12;7.20;93.30
12819;DHT22;6474;53.474;9.894;2023-11-19T04:23:39;7.30;93.30
12819;DHT22;6474;53.474;9.894;2023-11-19T04:26:09;7.40;93.30
12819;DHT22;6474;53.474;9.894;2023-11-19T04:28:37;7.50;93.20
12819;DHT22;6474;53.474;9.894;2023-11-19T04:31:05;7.50;93.20
12819;DHT22;6474;53.474;9.894;2023-11-19T04:33:33;7.50;93.20
12819;DHT22;6474;53.474;9.894;2023-11-19T04:36:01;7.60;93.20
12819;DHT22;6474;53.474;9.894;2023-11-19T04:38:29;7.60;93.20
12819;DHT22;6474;53.474;9.894;2023-11-19T04:40:57;7.70;93.20
12819;DHT22;6474;53.474;9.894;2023-11-19T04:43:27;7.80;93.30
12819;DHT22;6474;53.474;9.894;2023-11-19T04:45:54;7.90;93.30
12819;DHT22;6474;53.474;9.894;2023-11-19T04:48:23;7.90;93.20
12819;DHT22;6474;53.474;9.894;2023-11-19T04:50:51;7.90;93.20
12819;DHT22;6474;53.474;9.894;2023-11-19T04:53:19;8.00;93.20
12819;DHT22;6474;53.474;9.894;2023-11-19T04:55:47;8.10;93.20
12819;DHT22;6474;53.474;9.894;2023-11-19T04:58:15;8.10;93.20
12819;DHT22;6474;53.474;9.894;2023-11-19T05:00:44;8.10;93.20
12819;DHT22;6474;53.474;9.894;2023-11-19T05:03:12;8.20;93.20
12819;DHT22;6474;53.474;9.894;2023-11-19T05:05:40;8.20;93.20
12819;DHT22;6474;53.474;9.894;2023-11-19T05:08:07;8.20;93.20
12819;DHT22;6474;53.474;9.894;2023-11-19T05:10:35;8.30;93.30
12819;DHT22;6474;53.474;9.894;2023-11-19T05:13:04;8.30;93.20
12819;DHT22;6474;53.474;9.894;2023-11-19T05:15:32;8.30;93.30
12819;DHT22;6474;53.474;9.894;2023-11-19T05:18:01;8.40;93.30
12819;DHT22;6474;53.474;9.894;2023-11-19T05:20:29;8.40;93.30
12819;DHT22;6474;53.474;9.894;2023-11-19T05:22:58;8.50;93.30
12819;DHT22;6474;53.474;9.894;2023-11-19T05:25:27;8.50;93.30
12819;DHT22;6474;53.474;9.894;2023-11-19T05:27:55;8.60;93.30
12819;DHT22;6474;53.474;9.894;2023-11-19T05:30:22;8.60;93.20
12819;DHT22;6474;53.474;9.894;2023-11-19T05:32:50;8.60;93.30
12819;DHT22;6474;53.474;9.894;2023-11-19T05:35:20;8.60;93.60
12819;DHT22;6474;53.474;9.894;2023-11-19T05:37:47;8.70;93.60
12819;DHT22;6474;53.474;9.894;2023-11-19T05:40:17;8.70;93.30
12819;DHT22;6474;53.474;9.894;2023-11-19T05:42:45;8.70;93.30
12819;DHT22;6474;53.474;9.894;2023-11-19T05:45:13;8.70;93.30
12819;DHT22;6474;53.474;9.894;2023-11-19T05:47:41;8.80;93.40
12819;DHT22;6474;53.474;9.894;2023-11-19T05:50:10;8.80;93.40
12819;DHT22;6474;53.474;9.894;2023-11-19T05:52:39;8.80;93.40
12819;DHT22;6474;53.474;9.894;2023-11-19T05:55:07;8.90;93.40
12819;DHT22;6474;53.474;9.894;2023-11-19T05:57:37;8.90;93.40
12819;DHT22;6474;53.474;9.894;2023-11-19T06:00:09;8.90;93.40
12819;DHT22;6474;53.474;9.894;2023-11-19T06:02:40;9.00;93.40
12819;DHT22;6474;53.474;9.894;2023-11-19T06:05:08;9.00;93.40
12819;DHT22;6474;53.474;9.894;2023-11-19T06:07:36;9.00;93.80
12819;DHT22;6474;53.474;9.894;2023-11-19T06:10:07;9.10;93.50
12819;DHT22;6474;53.474;9.894;2023-11-19T06:12:36;9.10;93.40
12819;DHT22;6474;53.474;9.894;2023-11-19T06:15:08;9.20;93.40
12819;DHT22;6474;53.474;9.894;2023-11-19T06:17:36;9.20;93.40
12819;DHT22;6474;53.474;9.894;2023-11-19T06:20:05;9.20;93.40
12819;DHT22;6474;53.474;9.894;2023-11-19T06:22:35;9.20;93.40
12819;DHT22;6474;53.474;9.894;2023-11-19T06:25:04;9.30;93.50
12819;DHT22;6474;53.474;9.894;2023-11-19T06:27:36;9.30;93.50
12819;DHT22;6474;53.474;9.894;2023-11-19T06:30:04;9.30;93.50
12819;DHT22;6474;53.474;9.894;2023-11-19T06:32:32;9.30;93.50
12819;DHT22;6474;53.474;9.894;2023-11-19T06:35:00;9.40;93.50
12819;DHT22;6474;53.474;9.894;2023-11-19T06:37:28;9.40;93.50
12819;DHT22;6474;53.474;9.894;2023-11-19T06:39:56;9.50;93.50
12819;DHT22;6474;53.474;9.894;2023-11-19T06:42:24;9.50;93.50
12819;DHT22;6474;53.474;9.894;2023-11-19T06:44:53;9.50;93.50
12819;DHT22;6474;53.474;9.894;2023-11-19T06:47:21;9.50;93.50
12819;DHT22;6474;53.474;9.894;2023-11-19T06:49:49;9.50;93.50
12819;DHT22;6474;53.474;9.894;2023-11-19T06:52:17;9.50;93.60
12819;DHT22;6474;53.474;9.894;2023-11-19T06:54:45;9.60;93.50
12819;DHT22;6474;53.474;9.894;2023-11-19T06:57:13;9.60;93.60
12819;DHT22;6474;53.474;9.894;2023-11-19T06:59:42;9.60;93.50
12819;DHT22;6474;53.474;9.894;2023-11-19T07:02:12;9.70;93.50
12819;DHT22;6474;53.474;9.894;2023-11-19T07:04:40;9.70;93.50
12819;DHT22;6474;53.474;9.894;2023-11-19T07:07:09;9.70;93.50
12819;DHT22;6474;53.474;9.894;2023-11-19T07:09:36;9.70;93.50
12819;DHT22;6474;53.474;9.894;2023-11-19T07:12:05;9.70;93.60
12819;DHT22;6474;53.474;9.894;2023-11-19T07:14:33;9.80;93.60
12819;DHT22;6474;53.474;9.894;2023-11-19T07:17:01;9.80;93.60
12819;DHT22;6474;53.474;9.894;2023-11-19T07:19:30;9.80;93.50
12819;DHT22;6474;53.474;9.894;2023-11-19T07:21:58;9.80;93.50
12819;DHT22;6474;53.474;9.894;2023-11-19T07:24:26;9.90;93.60
12819;DHT22;6474;53.474;9.894;2023-11-19T07:26:54;9.90;93.70
12819;DHT22;6474;53.474;9.894;2023-11-19T07:29:22;10.00;93.10
12819;DHT22;6474;53.474;9.894;2023-11-19T07:31:53;10.00;93.10
12819;DHT22;6474;53.474;9.894;2023-11-19T07:34:24;10.00;93.00
12819;DHT22;6474;53.474;9.894;2023-11-19T07:36:53;10.00;93.00
12819;DHT22;6474;53.474;9.894;2023-11-19T07:39:23;10.00;93.00
12819;DHT22;6474;53.474;9.894;2023-11-19T07:41:51;10.00;93.00
12819;DHT22;6474;53.474;9.894;2023-11-19T07:44:19;10.00;93.00
12819;DHT22;6474;53.474;9.894;2023-11-19T07:46:47;10.00;93.00
12819;DHT22;6474;53.474;9.894;2023-11-19T07:49:16;10.00;93.10
12819;DHT22;6474;53.474;9.894;2023-11-19T07:51:44;10.00;93.10
12819;DHT22;6474;53.474;9.894;2023-11-19T07:54:13;10.00;93.10
12819;DHT22;6474;53.474;9.894;2023-11-19T07:56:42;10.00;93.10
12819;DHT22;6474;53.474;9.894;2023-11-19T07:59:10;10.10;93.20
12819;DHT22;6474;53.474;9.894;2023-11-19T08:01:38;10.10;93.20
12819;DHT22;6474;53.474;9.894;2023-11-19T08:04:06;10.10;93.20
12819;DHT22;6474;53.474;9.894;2023-11-19T08:06:34;10.10;93.10
12819;DHT22;6474;53.474;9.894;2023-11-19T08:09:02;10.10;93.20
12819;DHT22;6474;53.474;9.894;2023-11-19T08:11:31;10.10;93.30
12819;DHT22;6474;53.474;9.894;2023-11-19T08:14:00;10.10;93.50
12819;DHT22;6474;53.474;9.894;2023-11-19T08:16:28;10.20;93.40
12819;DHT22;6474;53.474;9.894;2023-11-19T08:18:55;10.20;93.40
12819;DHT22;6474;53.474;9.894;2023-11-19T08:21:24;10.20;93.30
12819;DHT22;6474;53.474;9.894;2023-11-19T08:23:53;10.20;93.30
12819;DHT22;6474;53.474;9.894;2023-11-19T08:26:21;10.30;93.40
12819;DHT22;6474;53.474;9.894;2023-11-19T08:28:50;10.30;93.40
12819;DHT22;6474;53.474;9.894;2023-11-19T08:31:19;10.30;93.40
12819;DHT22;6474;53.474;9.894;2023-11-19T08:33:47;10.30;93.40
12819;DHT22;6474;53.474;9.894;2023-11-19T08:36:16;10.30;93.40
12819;DHT22;6474;53.474;9.894;2023-11-19T08:38:44;10.40;93.50
12819;DHT22;6474;53.474;9.894;2023-11-19T08:41:12;10.40;93.50
12819;DHT22;6474;53.474;9.894;2023-11-19T08:43:40;10.40;93.50
12819;DHT22;6474;53.474;9.894;2023-11-19T08:46:13;10.40;93.50
12819;DHT22;6474;53.474;9.894;2023-11-19T08:48:41;10.50;93.50
12819;DHT22;6474;53.474;9.894;2023-11-19T08:51:08;10.50;93.50
12819;DHT22;6474;53.474;9.894;2023-11-19T08:53:36;10.60;93.60
12819;DHT22;6474;53.474;9.894;2023-11-19T08:56:05;10.60;93.60
12819;DHT22;6474;53.474;9.894;2023-11-19T08:58:33;10.70;93.60
12819;DHT22;6474;53.474;9.894;2023-11-19T09:01:01;10.60;93.60
12819;DHT22;6474;53.474;9.894;2023-11-19T09:03:31;10.70;93.60
12819;DHT22;6474;53.474;9.894;2023-11-19T09:06:00;10.60;93.60
12819;DHT22;6474;53.474;9.894;2023-11-19T09:08:28;10.60;93.60
12819;DHT22;6474;53.474;9.894;2023-11-19T09:10:56;10.60;93.60
12819;DHT22;6474;53.474;9.894;2023-11-19T09:13:24;10.60;93.60
12819;DHT22;6474;53.474;9.894;2023-11-19T09:15:51;10.60;93.60
12819;DHT22;6474;53.474;9.894;2023-11-19T09:18:19;10.60;93.60
12819;DHT22;6474;53.474;9.894;2023-11-19T09:20:49;10.60;93.60
12819;DHT22;6474;53.474;9.894;2023-11-19T09:23:17;10.60;93.60
12819;DHT22;6474;53.474;9.894;2023-11-19T09:25:45;10.60;93.60
12819;DHT22;6474;53.474;9.894;2023-11-19T09:28:13;10.60;93.60
12819;DHT22;6474;53.474;9.894;2023-11-19T09:30:42;10.60;93.60
12819;DHT22;6474;53.474;9.894;2023-11-19T09:33:10;10.60;93.60
12819;DHT22;6474;53.474;9.894;2023-11-19T09:35:38;10.60;93.60
12819;DHT22;6474;53.474;9.894;2023-11-19T09:38:07;10.60;93.60
12819;DHT22;6474;53.474;9.894;2023-11-19T09:40:34;10.60;93.60
12819;DHT22;6474;53.474;9.894;2023-11-19T09:43:05;10.60;93.60
12819;DHT22;6474;53.474;9.894;2023-11-19T09:45:42;10.60;93.70
12819;DHT22;6474;53.474;9.894;2023-11-19T09:48:15;10.60;93.60
12819;DHT22;6474;53.474;9.894;2023-11-19T09:50:44;10.60;93.60
12819;DHT22;6474;53.474;9.894;2023-11-19T09:53:15;10.60;93.70
12819;DHT22;6474;53.474;9.894;2023-11-19T09:55:43;10.70;93.70
12819;DHT22;6474;53.474;9.894;2023-11-19T09:58:13;10.80;93.80
12819;DHT22;6474;53.474;9.894;2023-11-19T10:00:41;10.80;93.70
12819;DHT22;6474;53.474;9.894;2023-11-19T10:03:11;10.80;93.70
12819;DHT22;6474;53.474;9.894;2023-11-19T10:05:40;10.80;93.70
12819;DHT22;6474;53.474;9.894;2023-11-19T10:08:08;10.80;93.70
12819;DHT22;6474;53.474;9.894;2023-11-19T10:10:38;10.80;93.70
12819;DHT22;6474;53.474;9.894;2023-11-19T10:13:06;10.90;93.70
12819;DHT22;6474;53.474;9.894;2023-11-19T10:15:36;10.90;93.70
12819;DHT22;6474;53.474;9.894;2023-11-19T10:18:04;10.90;93.70
12819;DHT22;6474;53.474;9.894;2023-11-19T10:20:35;10.90;93.70
12819;DHT22;6474;53.474;9.894;2023-11-19T10:23:03;10.80;93.70
12819;DHT22;6474;53.474;9.894;2023-11-19T10:25:33;10.80;93.70
12819;DHT22;6474;53.474;9.894;2023-11-19T10:28:02;10.80;93.70
12819;DHT22;6474;53.474;9.894;2023-11-19T10:30:31;10.80;93.70
12819;DHT22;6474;53.474;9.894;2023-11-19T10:33:04;10.80;93.70
12819;DHT22;6474;53.474;9.894;2023-11-19T10:35:33;10.70;93.60
12819;DHT22;6474;53.474;9.894;2023-11-19T10:38:01;10.80;93.70
12819;DHT22;6474;53.474;9.894;2023-11-19T10:40:40;10.80;93.70
12819;DHT22;6474;53.474;9.894;2023-11-19T10:43:10;10.80;94.00
12819;DHT22;6474;53.474;9.894;2023-11-19T10:45:39;10.80;93.70
12819;DHT22;6474;53.474;9.894;2023-11-19T10:48:07;10.80;93.70
12819;DHT22;6474;53.474;9.894;2023-11-19T10:50:36;10.80;93.70
12819;DHT22;6474;53.474;9.894;2023-11-19T10:53:07;10.80;93.70
12819;DHT22;6474;53.474;9.894;2023-11-19T10:55:37;10.70;93.60
12819;DHT22;6474;53.474;9.894;2023-11-19T10:58:07;10.70;93.60
12819;DHT22;6474;53.474;9.894;2023-11-19T11:00:42;10.70;93.60
12819;DHT22;6474;53.474;9.894;2023-11-19T11:03:15;10.70;93.60
12819;DHT22;6474;53.474;9.894;2023-11-19T11:05:46;10.70;93.60
12819;DHT22;6474;53.474;9.894;2023-11-19T11:08:15;10.70;93.70
12819;DHT22;6474;53.474;9.894;2023-11-19T11:10:45;10.70;93.70
12819;DHT22;6474;53.474;9.894;2023-11-19T11:13:18;10.70;93.70
12819;DHT22;6474;53.474;9.894;2023-11-19T11:15:48;10.80;93.70
12819;DHT22;6474;53.474;9.894;2023-11-19T11:18:19;10.80;93.70
12819;DHT22;6474;53.474;9.894;2023-11-19T11:20:49;10.80;93.70
12819;DHT22;6474;53.474;9.894;2023-11-19T11:23:51;10.90;94.10
12819;DHT22;6474;53.474;9.894;2023-11-19T11:29:26;11.00;93.80
12819;DHT22;6474;53.474;9.894;2023-11-19T11:32:03;11.00;93.80
12819;DHT22;6474;53.474;9.894;2023-11-19T11:34:53;11.10;93.80
12819;DHT22;6474;53.474;9.894;2023-11-19T11:37:29;11.10;93.80
12819;DHT22;6474;53.474;9.894;2023-11-19T11:39:58;11.20;93.90
12819;DHT22;6474;53.474;9.894;2023-11-19T11:42:36;11.20;93.90
12819;DHT22;6474;53.474;9.894;2023-11-19T11:45:06;11.30;93.90
12819;DHT22;6474;53.474;9.894;2023-11-19T11:48:06;11.40;94.00
12819;DHT22;6474;53.474;9.894;2023-11-19T11:50:36;11.50;94.00
12819;DHT22;6474;53.474;9.894;2023-11-19T11:53:18;11.50;93.80
12819;DHT22;6474;53.474;9.894;2023-11-19T11:55:56;11.50;93.80
12819;DHT22;6474;53.474;9.894;2023-11-19T11:58:31;11.50;93.90
12819;DHT22;6474;53.474;9.894;2023-11-19T12:01:15;11.50;93.80
12819;DHT22;6474;53.474;9.894;2023-11-19T12:03:50;11.50;93.80
12819;DHT22;6474;53.474;9.894;2023-11-19T12:06:20;11.40;93.80
12819;DHT22;6474;53.474;9.894;2023-11-19T12:08:48;11.40;93.80
12819;DHT22;6474;53.474;9.894;2023-11-19T12:11:19;11.40;93.80
12819;DHT22;6474;53.474;9.894;2023-11-19T12:13:53;11.40;93.90
12819;DHT22;6474;53.474;9.894;2023-11-19T12:16:23;11.50;94.00
12819;DHT22;6474;53.474;9.894;2023-11-19T12:18:53;11.50;94.00
12819;DHT22;6474;53.474;9.894;2023-11-19T12:21:28;11.50;94.00
12819;DHT22;6474;53.474;9.894;2023-11-19T12:23:58;11.60;94.10
12819;DHT22;6474;53.474;9.894;2023-11-19T12:26:35;11.60;94.10
12819;DHT22;6474;53.474;9.894;2023-11-19T12:29:06;11.60;94.10
12819;DHT22;6474;53.474;9.894;2023-11-19T12:31:36;11.60;94.10
12819;DHT22;6474;53.474;9.894;2023-11-19T12:34:09;11.70;94.10
12819;DHT22;6474;53.474;9.894;2023-11-19T12:36:40;11.80;94.20
12819;DHT22;6474;53.474;9.894;2023-11-19T12:39:10;11.80;94.10
12819;DHT22;6474;53.474;9.894;2023-11-19T12:41:53;11.80;94.10
12819;DHT22;6474;53.474;9.894;2023-11-19T12:44:31;11.90;94.10
12819;DHT22;6474;53.474;9.894;2023-11-19T12:47:02;11.90;94.10
12819;DHT22;6474;53.474;9.894;2023-11-19T12:49:34;11.90;94.00
12819;DHT22;6474;53.474;9.894;2023-11-19T12:52:10;11.90;94.00
12819;DHT22;6474;53.474;9.894;2023-11-19T12:54:42;11.80;93.90
12819;DHT22;6474;53.474;9.894;2023-11-19T12:57:10;11.70;93.90
12819;DHT22;6474;53.474;9.894;2023-11-19T12:59:37;11.70;93.80
12819;DHT22;6474;53.474;9.894;2023-11-19T13:02:05;11.70;93.80
12819;DHT22;6474;53.474;9.894;2023-11-19T13:04:35;11.60;93.80
12819;DHT22;6474;53.474;9.894;2023-11-19T13:07:03;11.60;93.90
12819;DHT22;6474;53.474;9.894;2023-11-19T13:09:32;11.60;94.00
12819;DHT22;6474;53.474;9.894;2023-11-19T13:12:12;11.60;94.00
12819;DHT22;6474;53.474;9.894;2023-11-19T13:14:41;11.60;94.10
12819;DHT22;6474;53.474;9.894;2023-11-19T13:17:13;11.60;94.10
12819;DHT22;6474;53.474;9.894;2023-11-19T13:19:43;11.60;94.00
12819;DHT22;6474;53.474;9.894;2023-11-19T13:22:11;11.70;94.40
12819;DHT22;6474;53.474;9.894;2023-11-19T13:24:38;11.70;94.00
12819;DHT22;6474;53.474;9.894;2023-11-19T13:27:07;11.60;93.90
12819;DHT22;6474;53.474;9.894;2023-11-19T13:29:35;11.60;93.80
12819;DHT22;6474;53.474;9.894;2023-11-19T13:32:03;11.60;93.80
12819;DHT22;6474;53.474;9.894;2023-11-19T13:34:32;11.60;93.90
12819;DHT22;6474;53.474;9.894;2023-11-19T13:37:01;11.60;93.90
12819;DHT22;6474;53.474;9.894;2023-11-19T13:39:29;11.60;93.90
12819;DHT22;6474;53.474;9.894;2023-11-19T13:41:57;11.60;93.90
12819;DHT22;6474;53.474;9.894;2023-11-19T13:44:28;11.60;94.00
12819;DHT22;6474;53.474;9.894;2023-11-19T13:46:56;11.70;94.00
12819;DHT22;6474;53.474;9.894;2023-11-19T13:49:24;11.60;93.90
12819;DHT22;6474;53.474;9.894;2023-11-19T13:51:52;11.60;93.90
12819;DHT22;6474;53.474;9.894;2023-11-19T13:54:22;11.60;93.80
12819;DHT22;6474;53.474;9.894;2023-11-19T13:56:50;11.60;93.80
12819;DHT22;6474;53.474;9.894;2023-11-19T13:59:20;11.60;93.80
12819;DHT22;6474;53.474;9.894;2023-11-19T14:01:49;11.50;93.70
12819;DHT22;6474;53.474;9.894;2023-11-19T14:04:17;11.50;93.70
12819;DHT22;6474;53.474;9.894;2023-11-19T14:06:45;11.50;93.80
12819;DHT22;6474;53.474;9.894;2023-11-19T14:09:13;11.40;93.70
12819;DHT22;6474;53.474;9.894;2023-11-19T14:11:43;11.40;93.70
12819;DHT22;6474;53.474;9.894;2023-11-19T14:14:12;11.40;93.80
12819;DHT22;6474;53.474;9.894;2023-11-19T14:16:40;11.40;93.80
12819;DHT22;6474;53.474;9.894;2023-11-19T14:19:08;11.40;93.80
12819;DHT22;6474;53.474;9.894;2023-11-19T14:21:36;11.30;93.80
12819;DHT22;6474;53.474;9.894;2023-11-19T14:24:04;11.30;93.80
12819;DHT22;6474;53.474;9.894;2023-11-19T14:26:32;11.30;93.80
12819;DHT22;6474;53.474;9.894;2023-11-19T14:29:01;11.30;93.80
12819;DHT22;6474;53.474;9.894;2023-11-19T14:31:29;11.30;93.90
12819;DHT22;6474;53.474;9.894;2023-11-19T14:33:58;11.30;93.90
12819;DHT22;6474;53.474;9.894;2023-11-19T14:36:26;11.30;93.90
12819;DHT22;6474;53.474;9.894;2023-11-19T14:38:54;11.30;93.90
12819;DHT22;6474;53.474;9.894;2023-11-19T14:41:22;11.20;93.80
12819;DHT22;6474;53.474;9.894;2023-11-19T14:43:50;11.20;93.70
12819;DHT22;6474;53.474;9.894;2023-11-19T14:46:20;11.20;93.70
12819;DHT22;6474;53.474;9.894;2023-11-19T14:48:48;11.10;93.70
12819;DHT22;6474;53.474;9.894;2023-11-19T14:51:16;11.10;93.70
12819;DHT22;6474;53.474;9.894;2023-11-19T14:53:44;11.10;93.80
12819;DHT22;6474;53.474;9.894;2023-11-19T14:56:15;11.10;93.80
12819;DHT22;6474;53.474;9.894;2023-11-19T14:58:43;11.00;93.70
12819;DHT22;6474;53.474;9.894;2023-11-19T15:01:12;11.00;93.60
12819;DHT22;6474;53.474;9.894;2023-11-19T15:03:41;10.90;93.50
12819;DHT22;6474;53.474;9.894;2023-11-19T15:06:12;10.90;93.50
12819;DHT22;6474;53.474;9.894;2023-11-19T15:08:40;10.90;93.40
12819;DHT22;6474;53.474;9.894;2023-11-19T15:11:08;10.80;93.40
12819;DHT22;6474;53.474;9.894;2023-11-19T15:13:36;10.80;93.40
12819;DHT22;6474;53.474;9.894;2023-11-19T15:16:06;10.70;93.40
12819;DHT22;6474;53.474;9.894;2023-11-19T15:18:37;10.70;93.40
12819;DHT22;6474;53.474;9.894;2023-11-19T15:21:07;10.60;93.40
12819;DHT22;6474;53.474;9.894;2023-11-19T15:23:36;10.60;93.50
12819;DHT22;6474;53.474;9.894;2023-11-19T15:26:04;10.60;93.60
12819;DHT22;6474;53.474;9.894;2023-11-19T15:28:33;10.60;93.60
12819;DHT22;6474;53.474;9.894;2023-11-19T15:31:01;10.60;93.60
12819;DHT22;6474;53.474;9.894;2023-11-19T15:33:29;10.60;93.60
12819;DHT22;6474;53.474;9.894;2023-11-19T15:35:57;10.60;93.60
12819;DHT22;6474;53.474;9.894;2023-11-19T15:38:28;10.50;93.50
12819;DHT22;6474;53.474;9.894;2023-11-19T15:40:56;10.60;93.60
12819;DHT22;6474;53.474;9.894;2023-11-19T15:43:24;10.50;93.50
12819;DHT22;6474;53.474;9.894;2023-11-19T15:45:52;10.50;93.50
12819;DHT22;6474;53.474;9.894;2023-11-19T15:48:20;10.50;93.50
12819;DHT22;6474;53.474;9.894;2023-11-19T15:50:47;10.50;93.50
12819;DHT22;6474;53.474;9.894;2023-11-19T15:53:16;10.50;93.50
12819;DHT22;6474;53.474;9.894;2023-11-19T15:55:46;10.50;93.50
12819;DHT22;6474;53.474;9.894;2023-11-19T15:58:15;10.50;93.50
12819;DHT22;6474;53.474;9.894;2023-11-19T16:00:44;10.50;93.50
12819;DHT22;6474;53.474;9.894;2023-11-19T16:03:13;10.50;93.50
12819;DHT22;6474;53.474;9.894;2023-11-19T16:05:42;10.50;93.50
12819;DHT22;6474;53.474;9.894;2023-11-19T16:08:10;10.50;93.50